sensor_id;sensor_type;location;lat;lon;timestamp;pressure;altitude;pressure_sealevel;temperature;humidity
63700;BME280;49845;47.130;142.766;2022-09-09T00:00:18;100473.22;;;20.87;71.43
63700;BME280;49845;47.130;142.766;2022-09-09T00:04:09;100468.72;;;21.03;71.37
63700;BME280;49845;47.130;142.766;2022-09-09T00:07:36;100480.56;;;21.14;67.57
63700;BME280;49845;47.130;142.766;2022-09-09T00:10:54;100458.47;;;20.97;66.88
63700;BME280;49845;47.130;142.766;2022-09-09T00:14:03;100466.31;;;21.30;68.17
63700;BME280;49845;47.130;142.766;2022-09-09T00:18:17;100454.63;;;21.49;67.03
63700;BME280;49845;47.130;142.766;2022-09-09T00:25:08;100463.38;;;21.35;67.40
63700;BME280;49845;47.130;142.766;2022-09-09T00:32:09;100460.88;;;21.78;67.33
63700;BME280;49845;47.130;142.766;2022-09-09T00:39:51;100460.75;;;22.10;64.20
63700;BME280;49845;47.130;142.766;2022-09-09T00:43:29;100453.94;;;22.34;65.24
63700;BME280;49845;47.130;142.766;2022-09-09T00:46:53;100456.56;;;22.63;65.36
63700;BME280;49845;47.130;142.766;2022-09-09T00:54:00;100453.63;;;22.95;61.43
63700;BME280;49845;47.130;142.766;2022-09-09T00:57:26;100448.91;;;23.00;61.16
63700;BME280;49845;47.130;142.766;2022-09-09T01:01:36;100437.19;;;22.88;59.99
63700;BME280;49845;47.130;142.766;2022-09-09T01:05:22;100434.31;;;22.64;58.72
63700;BME280;49845;47.130;142.766;2022-09-09T01:08:36;100431.47;;;22.53;58.53
63700;BME280;49845;47.130;142.766;2022-09-09T01:11:51;100433.00;;;22.57;59.15
63700;BME280;49845;47.130;142.766;2022-09-09T01:15:38;100436.59;;;22.56;57.45
63700;BME280;49845;47.130;142.766;2022-09-09T01:33:13;100423.91;;;23.15;52.46
63700;BME280;49845;47.130;142.766;2022-09-09T01:36:29;100413.09;;;23.04;47.80
63700;BME280;49845;47.130;142.766;2022-09-09T01:43:13;100415.44;;;22.81;45.14
63700;BME280;49845;47.130;142.766;2022-09-09T01:50:10;100416.53;;;22.92;44.82
63700;BME280;49845;47.130;142.766;2022-09-09T01:57:23;100421.53;;;23.11;44.13
63700;BME280;49845;47.130;142.766;2022-09-09T02:00:50;100409.97;;;22.97;43.70
63700;BME280;49845;47.130;142.766;2022-09-09T02:04:08;100416.53;;;22.92;43.20
63700;BME280;49845;47.130;142.766;2022-09-09T02:07:27;100409.09;;;22.97;44.48
63700;BME280;49845;47.130;142.766;2022-09-09T02:10:16;100373.91;;;22.92;44.29
63700;BME280;49845;47.130;142.766;2022-09-09T02:13:02;100401.25;;;23.08;43.10
63700;BME280;49845;47.130;142.766;2022-09-09T02:15:47;100423.00;;;23.02;42.90
63700;BME280;49845;47.130;142.766;2022-09-09T02:18:29;100422.38;;;23.11;42.66
63700;BME280;49845;47.130;142.766;2022-09-09T02:21:36;100416.75;;;23.16;41.88
63700;BME280;49845;47.130;142.766;2022-09-09T02:24:22;100416.56;;;23.19;41.75
63700;BME280;49845;47.130;142.766;2022-09-09T02:27:24;100380.59;;;22.99;41.70
63700;BME280;49845;47.130;142.766;2022-09-09T02:30:13;100423.69;;;23.18;43.91
63700;BME280;49845;47.130;142.766;2022-09-09T02:33:32;100424.88;;;23.14;44.62
63700;BME280;49845;47.130;142.766;2022-09-09T02:36:45;100423.94;;;23.01;42.98
63700;BME280;49845;47.130;142.766;2022-09-09T02:39:32;100430.59;;;22.94;43.56
63700;BME280;49845;47.130;142.766;2022-09-09T02:42:19;100426.09;;;22.81;43.54
63700;BME280;49845;47.130;142.766;2022-09-09T02:45:15;100418.84;;;22.83;43.68
63700;BME280;49845;47.130;142.766;2022-09-09T02:48:02;100418.84;;;22.83;42.96
63700;BME280;49845;47.130;142.766;2022-09-09T02:51:01;100408.38;;;22.80;42.84
63700;BME280;49845;47.130;142.766;2022-09-09T02:53:55;100427.59;;;22.86;41.75
63700;BME280;49845;47.130;142.766;2022-09-09T02:56:51;100417.13;;;22.82;43.27
63700;BME280;49845;47.130;142.766;2022-09-09T02:59:44;100416.53;;;22.92;42.65
63700;BME280;49845;47.130;142.766;2022-09-09T03:02:24;100364.03;;;22.52;41.61
63700;BME280;49845;47.130;142.766;2022-09-09T03:05:03;100415.22;;;22.85;42.36
63700;BME280;49845;47.130;142.766;2022-09-09T03:07:59;100414.59;;;22.94;42.36
63700;BME280;49845;47.130;142.766;2022-09-09T03:10:37;100374.41;;;22.57;41.11
63700;BME280;49845;47.130;142.766;2022-09-09T03:13:24;100423.72;;;22.77;40.62
63700;BME280;49845;47.130;142.766;2022-09-09T03:16:09;100423.91;;;22.74;40.95
63700;BME280;49845;47.130;142.766;2022-09-09T03:18:59;100431.25;;;22.70;41.65
63700;BME280;49845;47.130;142.766;2022-09-09T03:21:42;100411.13;;;22.52;41.75
63700;BME280;49845;47.130;142.766;2022-09-09T03:24:17;100409.19;;;22.54;41.49
63700;BME280;49845;47.130;142.766;2022-09-09T03:27:40;100412.59;;;22.70;42.08
63700;BME280;49845;47.130;142.766;2022-09-09T03:30:58;100431.81;;;22.75;40.50
63700;BME280;49845;47.130;142.766;2022-09-09T03:33:36;100431.81;;;22.75;42.05
63700;BME280;49845;47.130;142.766;2022-09-09T03:36:43;100399.31;;;22.56;40.48
63700;BME280;49845;47.130;142.766;2022-09-09T03:39:49;100429.00;;;22.64;39.99
63700;BME280;49845;47.130;142.766;2022-09-09T03:43:03;100419.38;;;22.61;40.34
63700;BME280;49845;47.130;142.766;2022-09-09T03:45:47;100430.16;;;22.87;42.92
63700;BME280;49845;47.130;142.766;2022-09-09T03:48:50;100422.72;;;22.92;39.89
63700;BME280;49845;47.130;142.766;2022-09-09T03:52:09;100413.50;;;22.83;40.68
63700;BME280;49845;47.130;142.766;2022-09-09T03:55:06;100410.84;;;22.98;40.32
63700;BME280;49845;47.130;142.766;2022-09-09T03:57:46;100430.31;;;23.25;39.57
63700;BME280;49845;47.130;142.766;2022-09-09T04:00:27;100438.81;;;23.45;39.24
63700;BME280;49845;47.130;142.766;2022-09-09T04:03:17;100434.00;;;23.50;37.50
63700;BME280;49845;47.130;142.766;2022-09-09T04:06:12;100408.25;;;23.23;36.47
63700;BME280;49845;47.130;142.766;2022-09-09T04:09:07;100428.13;;;23.45;37.34
63700;BME280;49845;47.130;142.766;2022-09-09T04:11:55;100419.91;;;23.48;38.01
63700;BME280;49845;47.130;142.766;2022-09-09T04:14:37;100407.56;;;23.47;37.49
63700;BME280;49845;47.130;142.766;2022-09-09T04:17:26;100394.63;;;23.41;39.69
63700;BME280;49845;47.130;142.766;2022-09-09T04:20:03;100388.06;;;23.59;39.98
63700;BME280;49845;47.130;142.766;2022-09-09T04:23:05;100389.00;;;23.58;38.24
63700;BME280;49845;47.130;142.766;2022-09-09T04:25:51;100408.88;;;23.67;37.76
63700;BME280;49845;47.130;142.766;2022-09-09T04:28:32;100405.53;;;23.63;37.77
63700;BME280;49845;47.130;142.766;2022-09-09T04:31:13;100403.06;;;23.47;36.79
63700;BME280;49845;47.130;142.766;2022-09-09T04:33:56;100399.56;;;23.47;39.52
63700;BME280;49845;47.130;142.766;2022-09-09T04:36:46;100406.28;;;23.65;39.75
63700;BME280;49845;47.130;142.766;2022-09-09T04:39:29;100419.31;;;23.70;37.65
63700;BME280;49845;47.130;142.766;2022-09-09T04:42:22;100409.72;;;23.67;37.15
63700;BME280;49845;47.130;142.766;2022-09-09T04:45:10;100424.72;;;23.56;37.54
63700;BME280;49845;47.130;142.766;2022-09-09T04:48:00;100425.25;;;23.48;36.13
63700;BME280;49845;47.130;142.766;2022-09-09T04:51:09;100425.69;;;23.42;35.13
63700;BME280;49845;47.130;142.766;2022-09-09T04:54:06;100423.41;;;23.36;35.53
63700;BME280;49845;47.130;142.766;2022-09-09T04:57:05;100409.59;;;23.16;34.38
63700;BME280;49845;47.130;142.766;2022-09-09T04:59:56;100436.59;;;23.12;34.11
63700;BME280;49845;47.130;142.766;2022-09-09T05:02:40;100426.88;;;23.11;34.24
63700;BME280;49845;47.130;142.766;2022-09-09T05:05:39;100443.31;;;23.17;34.77
63700;BME280;49845;47.130;142.766;2022-09-09T05:08:19;100435.53;;;23.14;33.38
63700;BME280;49845;47.130;142.766;2022-09-09T05:10:55;100434.97;;;23.09;33.35
63700;BME280;49845;47.130;142.766;2022-09-09T05:14:00;100435.31;;;23.17;34.53
63700;BME280;49845;47.130;142.766;2022-09-09T05:16:38;100441.19;;;23.22;33.19
63700;BME280;49845;47.130;142.766;2022-09-09T05:19:17;100443.31;;;23.17;33.68
63700;BME280;49845;47.130;142.766;2022-09-09T05:21:54;100426.16;;;22.94;32.74
63700;BME280;49845;47.130;142.766;2022-09-09T05:24:41;100455.53;;;22.93;33.28
63700;BME280;49845;47.130;142.766;2022-09-09T05:27:35;100450.75;;;22.71;31.90
63700;BME280;49845;47.130;142.766;2022-09-09T05:30:22;100452.00;;;22.65;33.51
63700;BME280;49845;47.130;142.766;2022-09-09T05:33:08;100453.72;;;22.52;32.60
63700;BME280;49845;47.130;142.766;2022-09-09T05:35:46;100459.44;;;22.46;33.92
63700;BME280;49845;47.130;142.766;2022-09-09T05:38:24;100459.53;;;22.44;33.44
63700;BME280;49845;47.130;142.766;2022-09-09T05:41:04;100465.16;;;22.39;33.31
63700;BME280;49845;47.130;142.766;2022-09-09T05:43:43;100455.34;;;22.26;33.11
63700;BME280;49845;47.130;142.766;2022-09-09T05:46:27;100457.06;;;22.27;35.21
63700;BME280;49845;47.130;142.766;2022-09-09T05:49:05;100471.59;;;22.35;34.43
63700;BME280;49845;47.130;142.766;2022-09-09T05:51:47;100476.38;;;22.30;34.97
63700;BME280;49845;47.130;142.766;2022-09-09T05:54:25;100483.53;;;22.14;34.59
63700;BME280;49845;47.130;142.766;2022-09-09T05:57:14;100423.44;;;21.67;34.80
63700;BME280;49845;47.130;142.766;2022-09-09T06:00:15;100501.78;;;22.06;34.17
63700;BME280;49845;47.130;142.766;2022-09-09T06:03:05;100510.53;;;22.08;34.28
63700;BME280;49845;47.130;142.766;2022-09-09T06:05:44;100509.38;;;21.97;32.89
63700;BME280;49845;47.130;142.766;2022-09-09T06:08:22;100509.19;;;22.01;34.88
63700;BME280;49845;47.130;142.766;2022-09-09T06:11:16;100514.06;;;21.78;33.94
63700;BME280;49845;47.130;142.766;2022-09-09T06:13:54;100530.63;;;21.83;35.03
63700;BME280;49845;47.130;142.766;2022-09-09T06:16:32;100518.09;;;21.85;35.05
63700;BME280;49845;47.130;142.766;2022-09-09T06:19:21;100523.00;;;21.77;34.85
63700;BME280;49845;47.130;142.766;2022-09-09T06:22:01;100526.13;;;21.69;34.83
63700;BME280;49845;47.130;142.766;2022-09-09T06:24:43;100524.06;;;21.59;36.34
63700;BME280;49845;47.130;142.766;2022-09-09T06:27:28;100539.88;;;21.30;35.26
63700;BME280;49845;47.130;142.766;2022-09-09T06:30:25;100530.13;;;21.15;34.95
63700;BME280;49845;47.130;142.766;2022-09-09T06:33:09;100527.88;;;21.07;34.16
63700;BME280;49845;47.130;142.766;2022-09-09T06:39:09;100524.78;;;20.83;34.49
63700;BME280;49845;47.130;142.766;2022-09-09T06:41:55;100541.38;;;20.71;33.09
63700;BME280;49845;47.130;142.766;2022-09-09T06:44:34;100540.00;;;20.63;33.20
63700;BME280;49845;47.130;142.766;2022-09-09T06:47:19;100487.31;;;20.22;32.75
63700;BME280;49845;47.130;142.766;2022-09-09T06:50:03;100557.97;;;20.58;30.63
63700;BME280;49845;47.130;142.766;2022-09-09T06:52:54;100567.16;;;20.51;31.59
63700;BME280;49845;47.130;142.766;2022-09-09T06:55:39;100583.59;;;20.42;31.19
63700;BME280;49845;47.130;142.766;2022-09-09T06:58:41;100590.53;;;20.27;31.98
63700;BME280;49845;47.130;142.766;2022-09-09T07:01:44;100598.91;;;20.19;32.32
63700;BME280;49845;47.130;142.766;2022-09-09T07:04:26;100612.41;;;20.15;32.06
63700;BME280;49845;47.130;142.766;2022-09-09T07:07:10;100617.13;;;20.08;32.45
63700;BME280;49845;47.130;142.766;2022-09-09T07:10:11;100621.03;;;20.01;33.10
63700;BME280;49845;47.130;142.766;2022-09-09T07:12:59;100628.53;;;19.93;32.47
63700;BME280;49845;47.130;142.766;2022-09-09T07:15:51;100619.31;;;19.82;33.12
63700;BME280;49845;47.130;142.766;2022-09-09T07:18:37;100623.97;;;19.77;33.04
63700;BME280;49845;47.130;142.766;2022-09-09T07:21:18;100617.25;;;19.70;34.32
63700;BME280;49845;47.130;142.766;2022-09-09T07:23:55;100578.75;;;19.25;34.65
63700;BME280;49845;47.130;142.766;2022-09-09T07:26:49;100622.38;;;19.54;35.67
63700;BME280;49845;47.130;142.766;2022-09-09T07:29:37;100621.03;;;19.46;35.44
63700;BME280;49845;47.130;142.766;2022-09-09T07:32:35;100637.38;;;19.36;36.13
63700;BME280;49845;47.130;142.766;2022-09-09T07:35:10;100641.88;;;19.34;36.87
63700;BME280;49845;47.130;142.766;2022-09-09T07:37:50;100650.75;;;19.33;37.57
63700;BME280;49845;47.130;142.766;2022-09-09T07:40:28;100640.59;;;19.24;37.21
63700;BME280;49845;47.130;142.766;2022-09-09T07:43:08;100642.75;;;19.16;36.83
63700;BME280;49845;47.130;142.766;2022-09-09T07:46:04;100641.16;;;19.12;37.79
63700;BME280;49845;47.130;142.766;2022-09-09T07:48:46;100595.16;;;18.75;39.10
63700;BME280;49845;47.130;142.766;2022-09-09T07:52:14;100649.94;;;18.93;39.61
63700;BME280;49845;47.130;142.766;2022-09-09T07:55:00;100644.28;;;18.82;40.58
63700;BME280;49845;47.130;142.766;2022-09-09T07:57:38;100608.53;;;18.51;41.77
63700;BME280;49845;47.130;142.766;2022-09-09T08:00:38;100648.63;;;18.63;42.40
63700;BME280;49845;47.130;142.766;2022-09-09T08:03:31;100651.72;;;18.52;43.37
63700;BME280;49845;47.130;142.766;2022-09-09T08:06:06;100653.00;;;18.43;43.68
63700;BME280;49845;47.130;142.766;2022-09-09T08:08:50;100630.88;;;18.24;44.39
63700;BME280;49845;47.130;142.766;2022-09-09T08:11:34;100647.75;;;18.21;45.21
63700;BME280;49845;47.130;142.766;2022-09-09T08:14:13;100652.69;;;18.08;45.85
63700;BME280;49845;47.130;142.766;2022-09-09T08:17:10;100662.16;;;17.92;46.40
63700;BME280;49845;47.130;142.766;2022-09-09T08:19:49;100673.13;;;17.83;47.07
63700;BME280;49845;47.130;142.766;2022-09-09T08:22:36;100655.28;;;17.64;47.41
63700;BME280;49845;47.130;142.766;2022-09-09T08:25:32;100675.03;;;17.56;47.90
63700;BME280;49845;47.130;142.766;2022-09-09T08:28:28;100655.81;;;17.29;48.34
63700;BME280;49845;47.130;142.766;2022-09-09T08:31:12;100656.38;;;17.13;48.70
63700;BME280;49845;47.130;142.766;2022-09-09T08:33:56;100681.06;;;17.12;49.10
63700;BME280;49845;47.130;142.766;2022-09-09T08:36:39;100672.81;;;16.98;49.16
63700;BME280;49845;47.130;142.766;2022-09-09T08:39:28;100677.47;;;16.90;49.56
63700;BME280;49845;47.130;142.766;2022-09-09T08:42:41;100687.66;;;16.75;50.31
63700;BME280;49845;47.130;142.766;2022-09-09T08:45:29;100685.47;;;16.61;51.35
63700;BME280;49845;47.130;142.766;2022-09-09T08:48:26;100690.44;;;16.46;52.98
63700;BME280;49845;47.130;142.766;2022-09-09T08:54:37;100711.09;;;16.05;54.85
63700;BME280;49845;47.130;142.766;2022-09-09T08:57:35;100716.66;;;15.95;56.02
63700;BME280;49845;47.130;142.766;2022-09-09T09:00:12;100713.63;;;15.80;57.72
63700;BME280;49845;47.130;142.766;2022-09-09T09:03:05;100710.78;;;15.58;59.02
63700;BME280;49845;47.130;142.766;2022-09-09T09:06:01;100709.72;;;15.34;59.96
63700;BME280;49845;47.130;142.766;2022-09-09T09:08:51;100709.16;;;15.22;59.84
63700;BME280;49845;47.130;142.766;2022-09-09T09:11:56;100706.94;;;15.07;59.81
63700;BME280;49845;47.130;142.766;2022-09-09T09:14:41;100723.38;;;14.84;61.12
63700;BME280;49845;47.130;142.766;2022-09-09T09:17:27;100737.06;;;14.62;62.90
63700;BME280;49845;47.130;142.766;2022-09-09T09:20:24;100731.78;;;14.27;64.27
63700;BME280;49845;47.130;142.766;2022-09-09T09:23:15;100750.09;;;13.94;65.08
63700;BME280;49845;47.130;142.766;2022-09-09T09:26:11;100755.09;;;13.66;65.69
63700;BME280;49845;47.130;142.766;2022-09-09T09:29:08;100759.81;;;13.48;66.27
63700;BME280;49845;47.130;142.766;2022-09-09T09:31:47;100761.84;;;13.35;66.78
63700;BME280;49845;47.130;142.766;2022-09-09T09:34:35;100767.16;;;13.31;66.82
63700;BME280;49845;47.130;142.766;2022-09-09T09:37:17;100775.16;;;13.22;66.54
63700;BME280;49845;47.130;142.766;2022-09-09T09:40:14;100778.03;;;13.08;66.77
63700;BME280;49845;47.130;142.766;2022-09-09T09:43:19;100783.34;;;13.06;66.79
63700;BME280;49845;47.130;142.766;2022-09-09T09:46:31;100794.81;;;13.01;66.75
63700;BME280;49845;47.130;142.766;2022-09-09T09:49:24;100802.91;;;12.88;67.45
63700;BME280;49845;47.130;142.766;2022-09-09T09:52:28;100802.09;;;12.83;67.38
63700;BME280;49845;47.130;142.766;2022-09-09T09:55:17;100814.34;;;12.83;67.25
63700;BME280;49845;47.130;142.766;2022-09-09T09:58:17;100822.13;;;12.87;68.15
63700;BME280;49845;47.130;142.766;2022-09-09T10:00:59;100836.09;;;12.89;69.44
63700;BME280;49845;47.130;142.766;2022-09-09T10:04:01;100837.84;;;12.90;70.13
63700;BME280;49845;47.130;142.766;2022-09-09T10:06:44;100846.69;;;12.83;71.74
63700;BME280;49845;47.130;142.766;2022-09-09T10:09:30;100839.81;;;12.76;72.39
63700;BME280;49845;47.130;142.766;2022-09-09T10:12:28;100852.13;;;12.71;72.34
63700;BME280;49845;47.130;142.766;2022-09-09T10:15:24;100829.78;;;12.45;72.29
63700;BME280;49845;47.130;142.766;2022-09-09T10:18:28;100890.69;;;12.63;72.13
63700;BME280;49845;47.130;142.766;2022-09-09T10:21:18;100779.88;;;11.94;72.09
63700;BME280;49845;47.130;142.766;2022-09-09T10:25:01;100899.50;;;12.59;71.95
63700;BME280;49845;47.130;142.766;2022-09-09T10:28:30;100896.25;;;12.41;72.06
63700;BME280;49845;47.130;142.766;2022-09-09T10:31:23;100892.91;;;12.30;72.73
63700;BME280;49845;47.130;142.766;2022-09-09T10:34:32;100907.97;;;12.13;72.78
63700;BME280;49845;47.130;142.766;2022-09-09T10:37:51;100919.41;;;12.05;73.22
63700;BME280;49845;47.130;142.766;2022-09-09T10:40:59;100926.59;;;11.85;73.85
63700;BME280;49845;47.130;142.766;2022-09-09T10:44:10;100933.75;;;11.71;74.56
63700;BME280;49845;47.130;142.766;2022-09-09T10:47:17;100936.53;;;11.52;74.96
63700;BME280;49845;47.130;142.766;2022-09-09T10:50:40;100944.47;;;11.43;74.57
63700;BME280;49845;47.130;142.766;2022-09-09T10:53:45;100926.31;;;11.23;74.20
63700;BME280;49845;47.130;142.766;2022-09-09T10:56:40;100941.09;;;11.32;74.09
63700;BME280;49845;47.130;142.766;2022-09-09T10:59:22;100953.19;;;11.45;74.35
63700;BME280;49845;47.130;142.766;2022-09-09T11:02:18;100946.16;;;11.50;74.20
63700;BME280;49845;47.130;142.766;2022-09-09T11:05:19;100928.91;;;11.29;74.72
63700;BME280;49845;47.130;142.766;2022-09-09T11:08:12;100969.78;;;11.44;74.79
63700;BME280;49845;47.130;142.766;2022-09-09T11:11:04;100944.59;;;11.28;74.84
63700;BME280;49845;47.130;142.766;2022-09-09T11:13:53;100962.06;;;11.29;74.30
63700;BME280;49845;47.130;142.766;2022-09-09T11:16:50;100960.41;;;11.18;74.43
63700;BME280;49845;47.130;142.766;2022-09-09T11:19:44;100972.63;;;11.10;74.69
63700;BME280;49845;47.130;142.766;2022-09-09T11:22:31;100978.81;;;11.01;74.58
63700;BME280;49845;47.130;142.766;2022-09-09T11:25:22;100936.28;;;10.76;74.64
63700;BME280;49845;47.130;142.766;2022-09-09T11:28:31;100985.00;;;10.87;75.08
63700;BME280;49845;47.130;142.766;2022-09-09T11:31:44;100974.72;;;10.54;75.99
63700;BME280;49845;47.130;142.766;2022-09-09T11:34:46;100988.66;;;10.55;76.78
63700;BME280;49845;47.130;142.766;2022-09-09T11:37:55;100987.84;;;10.47;76.38
63700;BME280;49845;47.130;142.766;2022-09-09T11:40:37;100920.03;;;10.10;76.70
63700;BME280;49845;47.130;142.766;2022-09-09T11:43:39;100991.25;;;10.58;76.82
63700;BME280;49845;47.130;142.766;2022-09-09T11:46:31;100987.78;;;10.57;77.03
63700;BME280;49845;47.130;142.766;2022-09-09T11:49:29;100983.44;;;10.55;76.71
63700;BME280;49845;47.130;142.766;2022-09-09T11:52:35;101006.06;;;10.59;76.29
63700;BME280;49845;47.130;142.766;2022-09-09T11:55:28;100999.97;;;10.57;76.53
63700;BME280;49845;47.130;142.766;2022-09-09T11:58:19;101004.31;;;10.61;77.17
63700;BME280;49845;47.130;142.766;2022-09-09T12:01:27;101011.25;;;10.65;77.34
63700;BME280;49845;47.130;142.766;2022-09-09T12:04:28;101008.63;;;10.70;77.53
63700;BME280;49845;47.130;142.766;2022-09-09T12:07:35;101007.78;;;10.60;78.15
63700;BME280;49845;47.130;142.766;2022-09-09T12:10:38;100997.44;;;10.42;78.64
63700;BME280;49845;47.130;142.766;2022-09-09T12:13:33;101007.84;;;10.51;79.03
63700;BME280;49845;47.130;142.766;2022-09-09T12:16:32;101008.72;;;10.47;79.12
63700;BME280;49845;47.130;142.766;2022-09-09T12:19:16;100988.75;;;10.27;79.40
63700;BME280;49845;47.130;142.766;2022-09-09T12:22:05;101011.38;;;10.38;79.60
63700;BME280;49845;47.130;142.766;2022-09-09T12:24:57;101013.13;;;10.32;79.39
63700;BME280;49845;47.130;142.766;2022-09-09T12:28:01;101000.13;;;10.09;79.00
63700;BME280;49845;47.130;142.766;2022-09-09T12:31:01;101030.53;;;10.18;79.12
63700;BME280;49845;47.130;142.766;2022-09-09T12:34:04;101021.88;;;10.10;79.44
63700;BME280;49845;47.130;142.766;2022-09-09T12:36:53;101034.91;;;10.13;79.29
63700;BME280;49845;47.130;142.766;2022-09-09T12:39:37;101037.56;;;10.07;79.42
63700;BME280;49845;47.130;142.766;2022-09-09T12:42:24;101041.06;;;9.93;79.48
63700;BME280;49845;47.130;142.766;2022-09-09T12:45:17;101044.53;;;9.77;80.03
63700;BME280;49845;47.130;142.766;2022-09-09T12:48:30;101055.84;;;9.73;80.54
63700;BME280;49845;47.130;142.766;2022-09-09T12:51:19;101052.38;;;9.68;80.71
63700;BME280;49845;47.130;142.766;2022-09-09T12:54:15;101066.31;;;9.68;80.98
63700;BME280;49845;47.130;142.766;2022-09-09T12:56:53;101061.94;;;9.70;80.93
63700;BME280;49845;47.130;142.766;2022-09-09T12:59:38;101064.56;;;9.74;80.39
63700;BME280;49845;47.130;142.766;2022-09-09T13:02:25;101065.44;;;9.71;80.15
63700;BME280;49845;47.130;142.766;2022-09-09T13:05:19;101066.28;;;9.73;80.21
63700;BME280;49845;47.130;142.766;2022-09-09T13:08:18;101070.66;;;9.62;80.08
63700;BME280;49845;47.130;142.766;2022-09-09T13:10:57;101072.38;;;9.54;80.35
63700;BME280;49845;47.130;142.766;2022-09-09T13:13:51;101070.63;;;9.53;80.23
63700;BME280;49845;47.130;142.766;2022-09-09T13:16:42;101076.72;;;9.52;80.58
63700;BME280;49845;47.130;142.766;2022-09-09T13:19:21;101020.16;;;9.20;80.56
63700;BME280;49845;47.130;142.766;2022-09-09T13:22:26;101049.75;;;9.31;80.10
63700;BME280;49845;47.130;142.766;2022-09-09T13:25:22;101061.91;;;9.35;80.29
63700;BME280;49845;47.130;142.766;2022-09-09T13:28:04;101066.28;;;9.32;80.54
63700;BME280;49845;47.130;142.766;2022-09-09T13:30:42;101074.06;;;9.33;81.06
63700;BME280;49845;47.130;142.766;2022-09-09T13:33:22;101068.88;;;9.24;81.45
63700;BME280;49845;47.130;142.766;2022-09-09T13:36:06;101060.13;;;9.16;81.06
63700;BME280;49845;47.130;142.766;2022-09-09T13:38:54;101023.56;;;8.88;81.05
63700;BME280;49845;47.130;142.766;2022-09-09T13:42:03;101082.78;;;9.29;81.70
63700;BME280;49845;47.130;142.766;2022-09-09T13:44:46;101074.06;;;9.33;81.97
63700;BME280;49845;47.130;142.766;2022-09-09T13:47:30;101069.72;;;9.31;81.48
63700;BME280;49845;47.130;142.766;2022-09-09T13:50:40;101076.69;;;9.27;81.98
63700;BME280;49845;47.130;142.766;2022-09-09T13:53:19;101076.66;;;9.21;81.95
63700;BME280;49845;47.130;142.766;2022-09-09T13:55:56;101043.59;;;9.00;82.07
63700;BME280;49845;47.130;142.766;2022-09-09T13:58:42;101075.78;;;9.10;81.79
63700;BME280;49845;47.130;142.766;2022-09-09T14:01:26;101068.81;;;9.04;82.19
63700;BME280;49845;47.130;142.766;2022-09-09T14:04:22;101084.44;;;9.05;82.19
63700;BME280;49845;47.130;142.766;2022-09-09T14:07:11;101090.53;;;9.04;82.09
63700;BME280;49845;47.130;142.766;2022-09-09T14:10:02;101094.00;;;9.05;82.15
63700;BME280;49845;47.130;142.766;2022-09-09T14:12:55;101044.41;;;8.79;81.89
63700;BME280;49845;47.130;142.766;2022-09-09T14:15:44;101093.09;;;8.95;81.73
63700;BME280;49845;47.130;142.766;2022-09-09T14:18:33;101093.09;;;8.92;82.02
63700;BME280;49845;47.130;142.766;2022-09-09T14:21:23;101094.78;;;8.81;81.78
63700;BME280;49845;47.130;142.766;2022-09-09T14:24:14;101099.97;;;8.78;82.30
63700;BME280;49845;47.130;142.766;2022-09-09T14:26:52;101108.69;;;8.86;82.29
63700;BME280;49845;47.130;142.766;2022-09-09T14:29:31;101113.03;;;8.81;82.15
63700;BME280;49845;47.130;142.766;2022-09-09T14:32:23;101115.63;;;8.75;81.92
63700;BME280;49845;47.130;142.766;2022-09-09T14:35:11;101129.53;;;8.86;82.16
63700;BME280;49845;47.130;142.766;2022-09-09T14:37:50;101127.81;;;8.88;82.08
63700;BME280;49845;47.130;142.766;2022-09-09T14:40:30;101129.59;;;8.95;81.89
63700;BME280;49845;47.130;142.766;2022-09-09T14:43:06;101125.22;;;8.82;82.11
63700;BME280;49845;47.130;142.766;2022-09-09T14:45:42;101125.16;;;8.71;81.90
63700;BME280;49845;47.130;142.766;2022-09-09T14:48:22;101124.25;;;8.61;82.13
63700;BME280;49845;47.130;142.766;2022-09-09T14:51:08;101118.97;;;8.52;82.15
63700;BME280;49845;47.130;142.766;2022-09-09T14:53:52;101111.88;;;8.33;82.54
63700;BME280;49845;47.130;142.766;2022-09-09T14:56:41;101113.47;;;8.12;83.49
63700;BME280;49845;47.130;142.766;2022-09-09T14:59:23;101115.09;;;8.01;84.10
63700;BME280;49845;47.130;142.766;2022-09-09T15:02:03;101111.59;;;7.91;84.84
63700;BME280;49845;47.130;142.766;2022-09-09T15:04:44;101116.81;;;7.96;85.53
63700;BME280;49845;47.130;142.766;2022-09-09T15:07:38;101115.16;;;8.04;85.36
63700;BME280;49845;47.130;142.766;2022-09-09T15:10:29;101131.75;;;8.20;85.05
63700;BME280;49845;47.130;142.766;2022-09-09T15:13:03;101130.97;;;8.35;84.79
63700;BME280;49845;47.130;142.766;2022-09-09T15:15:56;101134.53;;;8.43;84.10
63700;BME280;49845;47.130;142.766;2022-09-09T15:18:53;101139.81;;;8.52;83.83
63700;BME280;49845;47.130;142.766;2022-09-09T15:21:55;101115.28;;;8.26;83.39
63700;BME280;49845;47.130;142.766;2022-09-09T15:24:33;101151.00;;;8.39;82.82
63700;BME280;49845;47.130;142.766;2022-09-09T15:27:24;101103.78;;;7.96;82.35
63700;BME280;49845;47.130;142.766;2022-09-09T15:30:12;101151.66;;;8.13;82.50
63700;BME280;49845;47.130;142.766;2022-09-09T15:32:53;101144.63;;;8.06;82.45
63700;BME280;49845;47.130;142.766;2022-09-09T15:35:31;101135.13;;;8.07;82.93